Douglass, South Carolina
Current Conditions -  °F | °C
As of 8:35 PM on Saturday 25 Oct 2014 (Local Time) from KLKR Reporting Station
Clear Clear  
Wind Chill: 57°   Ceiling: Unl
Heat Index: 57°   Visibility: 10mi
Dew Point: 54°   Wind: 0mph
Humidity: 88%   Direction: NA
Pressure: 29.96"   Gusts: NA
Location:  34.5772°N, 81.1021°W
Report Text: KLKR 260035Z AUTO 00000KT 10SM CLR 14/12 A2996 RMK AO2
Loading
Personal Weather Stations






























Interactive Weather Map
Tropical Storm Tracking
New forecast layout! Learn more

10-Day Weather Forecast

Advertisements
Track Severe Weather on mobile